Terminal Aerodrome Forecast
Issued by NWS

Home | Current Version | Previous Version | Text Only | Print | Product List | Glossary On
Versions: 1 2 3 4 5 6 7 8 9 10 11 12 13 14 15 16 17 18 19 20 21 22
000
FTUS45 KTFX 280900 AAA
TAFLWT
TAF AMD
KLWT 280917Z 2809/2906 12006KT 3SM -SN BR SCT012 BKN020
      TEMPO 2809/2812 1SM -SN BR BKN012
     FM281200 35005KT 1/2SM -SN FZFG BKN006 BKN015
     FM282300 36008KT 2SM -SN BR OVC012=

USA.gov is the U.S. government's official web portal to all federal, state and local government web resources and services.